createdAt,value
2023-05-12T00:02:04.398Z,81.56
2023-05-12T00:04:30.983Z,81.90
2023-05-12T00:06:57.521Z,81.74
2023-05-12T00:09:25.942Z,81.46
2023-05-12T00:11:52.489Z,82.25
2023-05-12T00:14:22.290Z,82.00
2023-05-12T00:16:52.384Z,82.24
2023-05-12T00:19:20.183Z,82.27
2023-05-12T00:21:52.737Z,82.34
2023-05-12T00:24:22.368Z,82.94
2023-05-12T00:26:51.749Z,82.76
2023-05-12T00:29:25.483Z,82.78
2023-05-12T00:32:08.347Z,82.89
2023-05-12T00:34:34.913Z,83.24
2023-05-12T00:37:04.307Z,83.47
2023-05-12T00:39:32.977Z,83.21
2023-05-12T00:41:59.804Z,83.03
2023-05-12T00:44:29.721Z,82.90
2023-05-12T00:46:56.329Z,82.58
2023-05-12T00:49:22.928Z,82.79
2023-05-12T00:51:55.958Z,82.20
2023-05-12T00:54:29.227Z,82.38
2023-05-12T00:56:55.774Z,82.58
2023-05-12T00:59:25.292Z,83.12
2023-05-12T01:01:52.516Z,83.58
2023-05-12T01:04:19.048Z,83.42
2023-05-12T01:06:48.805Z,83.47
2023-05-12T01:11:56.199Z,83.02
2023-05-12T01:14:28.535Z,82.64
2023-05-12T01:17:00.186Z,82.31
2023-05-12T01:19:34.609Z,82.49
2023-05-12T01:22:01.356Z,82.35
2023-05-12T01:24:29.423Z,81.97
2023-05-12T01:26:55.927Z,82.40
2023-05-12T01:29:23.535Z,82.35
2023-05-12T01:31:56.280Z,82.06
2023-05-12T01:34:38.136Z,82.22
2023-05-12T01:37:13.853Z,82.16
2023-05-12T01:39:47.639Z,81.77
2023-05-12T01:42:20.093Z,81.37
2023-05-12T01:44:46.808Z,81.59
2023-05-12T01:47:16.253Z,81.54
2023-05-12T01:49:51.964Z,81.94
2023-05-12T01:52:21.625Z,81.97
2023-05-12T01:54:48.185Z,82.60
2023-05-12T01:57:20.672Z,82.75
2023-05-12T01:59:47.214Z,82.95
2023-05-12T02:02:13.768Z,83.62
2023-05-12T02:04:41.540Z,82.98
2023-05-12T02:07:08.095Z,83.18
2023-05-12T02:09:34.591Z,83.09
2023-05-12T02:12:02.449Z,82.91
2023-05-12T02:14:29.067Z,83.28
2023-05-12T02:16:56.691Z,83.69
2023-05-12T02:19:23.230Z,83.63
2023-05-12T02:21:52.855Z,83.50
2023-05-12T02:24:21.333Z,83.55
2023-05-12T02:26:47.866Z,83.77
2023-05-12T02:29:16.696Z,84.28
2023-05-12T02:31:46.336Z,84.38
2023-05-12T02:34:12.911Z,84.31
2023-05-12T02:36:39.430Z,84.23
2023-05-12T02:39:08.586Z,83.59
2023-05-12T02:41:35.178Z,83.29
2023-05-12T02:44:03.922Z,83.31
2023-05-12T02:46:32.561Z,83.60
2023-05-12T02:48:59.142Z,84.15
2023-05-12T02:51:30.326Z,83.66
2023-05-12T02:53:56.920Z,83.35
2023-05-12T02:56:29.128Z,83.96
2023-05-12T02:58:58.810Z,84.15
2023-05-12T03:01:25.435Z,83.62
2023-05-12T03:03:52.117Z,84.47
2023-05-12T03:06:18.774Z,84.41
2023-05-12T03:08:45.442Z,84.70
2023-05-12T03:11:12.015Z,84.17
2023-05-12T03:13:38.592Z,84.23
2023-05-12T03:16:08.187Z,83.59
2023-05-12T03:18:39.152Z,83.84
2023-05-12T03:21:09.150Z,84.14
2023-05-12T03:23:36.922Z,84.41
2023-05-12T03:26:03.466Z,84.07
2023-05-12T03:28:30.067Z,84.40
2023-05-12T03:30:56.800Z,84.13
2023-05-12T03:33:23.385Z,84.20
2023-05-12T03:35:50.000Z,84.61
2023-05-12T03:38:16.503Z,84.75
2023-05-12T03:40:43.696Z,84.91
2023-05-12T03:43:10.213Z,84.60
2023-05-12T03:45:36.756Z,84.85
2023-05-12T03:48:06.233Z,84.87
2023-05-12T03:50:33.338Z,84.82
2023-05-12T03:53:09.137Z,84.18
2023-05-12T03:58:16.931Z,84.88
2023-05-12T04:00:44.300Z,84.51
2023-05-12T04:03:11.026Z,84.52
2023-05-12T04:05:39.563Z,85.26
2023-05-12T04:08:06.401Z,84.50
2023-05-12T04:10:33.024Z,84.43
2023-05-12T04:12:59.551Z,84.98
2023-05-12T04:15:28.042Z,85.45
2023-05-12T04:17:54.548Z,85.28
2023-05-12T04:20:21.510Z,85.48
2023-05-12T04:22:48.165Z,85.66
2023-05-12T04:25:18.799Z,85.33
2023-05-12T04:27:46.482Z,85.01
2023-05-12T04:30:13.218Z,85.32
2023-05-12T04:32:39.847Z,85.28
2023-05-12T04:35:06.547Z,85.48
2023-05-12T04:37:33.084Z,85.56
2023-05-12T04:39:59.726Z,85.82
2023-05-12T04:42:26.447Z,85.97
2023-05-12T04:44:53.260Z,86.11
2023-05-12T04:47:19.840Z,85.27
2023-05-12T04:49:47.169Z,84.76
2023-05-12T04:52:13.651Z,83.62
2023-05-12T04:54:40.059Z,84.01
2023-05-12T04:57:06.517Z,84.02
2023-05-12T04:59:33.145Z,83.69
2023-05-12T05:01:59.721Z,83.68
2023-05-12T05:04:26.497Z,83.61
2023-05-12T05:06:53.071Z,83.08
2023-05-12T05:09:22.716Z,82.23
2023-05-12T05:11:49.249Z,81.75
2023-05-12T05:14:18.654Z,81.78
2023-05-12T05:16:46.414Z,81.71
2023-05-12T05:19:21.814Z,80.62
2023-05-12T05:21:58.871Z,80.85
2023-05-12T05:24:26.351Z,80.50
2023-05-12T05:26:52.821Z,80.36
2023-05-12T05:29:19.325Z,80.77
2023-05-12T05:31:49.197Z,79.44
2023-05-12T05:34:20.997Z,79.74
2023-05-12T05:36:50.721Z,78.48
2023-05-12T05:39:17.359Z,77.79
2023-05-12T05:41:44.034Z,77.19
2023-05-12T05:44:11.037Z,77.26
2023-05-12T05:46:37.635Z,77.40
2023-05-12T05:49:04.486Z,77.01
2023-05-12T05:51:31.408Z,77.24
2023-05-12T05:54:01.306Z,75.54
2023-05-12T05:56:28.473Z,76.18
2023-05-12T05:58:55.058Z,75.78
2023-05-12T06:01:21.595Z,75.27
2023-05-12T06:03:51.743Z,75.31
2023-05-12T06:06:21.634Z,75.53
2023-05-12T06:08:48.064Z,75.62
2023-05-12T06:11:15.904Z,74.85
2023-05-12T06:13:43.761Z,74.66
2023-05-12T06:16:10.726Z,74.71
2023-05-12T06:18:40.986Z,74.02
2023-05-12T06:21:14.144Z,74.59
2023-05-12T06:23:40.760Z,73.77
2023-05-12T06:26:07.971Z,73.95
2023-05-12T06:28:34.504Z,74.80
2023-05-12T06:31:01.130Z,74.51
2023-05-12T06:33:30.217Z,74.99
2023-05-12T06:36:16.088Z,74.20
2023-05-12T06:38:43.336Z,74.60
2023-05-12T06:41:11.003Z,75.23
2023-05-12T06:43:58.392Z,74.58
2023-05-12T06:46:25.071Z,73.48
2023-05-12T06:48:52.053Z,73.04
2023-05-12T06:51:21.467Z,73.26
2023-05-12T06:53:48.065Z,72.87
2023-05-12T06:56:20.556Z,71.11
2023-05-12T06:58:48.291Z,71.54
2023-05-12T07:01:17.308Z,72.43
2023-05-12T07:03:44.751Z,72.34
2023-05-12T07:06:14.276Z,72.09
2023-05-12T07:08:40.914Z,71.67
2023-05-12T07:11:07.553Z,71.80
2023-05-12T07:13:35.862Z,70.69
2023-05-12T07:16:03.192Z,70.61
2023-05-12T07:18:29.744Z,70.18
2023-05-12T07:20:59.504Z,69.51
2023-05-12T07:23:26.302Z,70.02
2023-05-12T07:25:52.864Z,68.09
2023-05-12T07:28:21.066Z,69.01
2023-05-12T07:30:47.666Z,68.60
2023-05-12T07:33:17.911Z,68.13
2023-05-12T07:35:44.910Z,68.43
2023-05-12T07:38:11.589Z,68.77
2023-05-12T07:40:40.890Z,68.72
2023-05-12T07:43:08.125Z,68.78
2023-05-12T07:45:34.603Z,67.19
2023-05-12T07:48:01.245Z,68.01
2023-05-12T07:50:27.884Z,67.15
2023-05-12T07:52:54.587Z,66.74
2023-05-12T07:55:22.048Z,67.17
2023-05-12T07:57:56.211Z,66.53
2023-05-12T08:00:22.874Z,67.00
2023-05-12T08:02:49.688Z,66.15
2023-05-12T08:05:16.487Z,66.04
2023-05-12T08:07:44.133Z,66.14
2023-05-12T08:10:15.488Z,65.60
2023-05-12T08:12:42.295Z,66.31
2023-05-12T08:15:14.190Z,66.32
2023-05-12T08:17:43.735Z,65.63
2023-05-12T08:20:11.756Z,64.74
2023-05-12T08:22:39.974Z,64.12
2023-05-12T08:25:08.365Z,64.56
2023-05-12T08:27:36.251Z,64.64
2023-05-12T08:30:02.794Z,63.46
2023-05-12T08:32:29.418Z,63.47
2023-05-12T08:34:56.056Z,63.94
2023-05-12T08:37:22.773Z,62.35
2023-05-12T08:39:49.379Z,61.92
2023-05-12T08:42:26.056Z,61.38
2023-05-12T08:44:53.724Z,61.08
2023-05-12T08:47:22.759Z,61.48
2023-05-12T08:49:56.300Z,60.31
2023-05-12T08:52:23.598Z,61.97
2023-05-12T08:54:56.298Z,62.09
2023-05-12T08:57:23.480Z,62.18
2023-05-12T08:59:56.920Z,61.08
2023-05-12T09:02:24.743Z,60.97
2023-05-12T09:04:52.382Z,61.34
2023-05-12T09:07:21.968Z,60.54
2023-05-12T09:09:52.876Z,60.84
2023-05-12T09:12:19.762Z,60.02
2023-05-12T09:14:49.597Z,60.84
2023-05-12T09:17:16.194Z,60.59
2023-05-12T09:19:48.110Z,61.31
2023-05-12T09:22:14.832Z,60.48
2023-05-12T09:24:43.409Z,60.29
2023-05-12T09:27:10.725Z,59.32
2023-05-12T09:32:14.781Z,59.15
2023-05-12T09:34:46.784Z,58.89
2023-05-12T09:37:15.532Z,58.39
2023-05-12T09:39:47.258Z,57.32
2023-05-12T09:42:16.887Z,57.65
2023-05-12T09:44:47.112Z,57.85
2023-05-12T09:47:15.579Z,57.07
2023-05-12T09:49:46.180Z,58.10
2023-05-12T09:52:12.805Z,57.47
2023-05-12T09:54:39.747Z,58.79
2023-05-12T09:57:06.746Z,58.52
2023-05-12T09:59:44.107Z,58.47
2023-05-12T10:02:13.891Z,56.88
2023-05-12T10:04:43.489Z,57.46
2023-05-12T10:07:12.047Z,58.10
2023-05-12T10:09:42.224Z,57.08
2023-05-12T10:12:09.336Z,57.12
2023-05-12T10:14:37.480Z,57.84
2023-05-12T10:17:05.627Z,57.89
2023-05-12T10:19:34.840Z,57.59
2023-05-12T10:22:01.856Z,57.44
2023-05-12T10:24:31.732Z,57.48
2023-05-12T10:26:59.689Z,57.27
2023-05-12T10:29:42.478Z,57.16
2023-05-12T10:32:11.036Z,57.61
2023-05-12T10:34:40.857Z,57.51
2023-05-12T10:37:11.217Z,57.82
2023-05-12T10:39:46.479Z,56.53
2023-05-12T10:42:17.003Z,56.74
2023-05-12T10:44:51.116Z,57.42
2023-05-12T10:47:20.558Z,57.85
2023-05-12T10:49:47.300Z,58.60
2023-05-12T10:52:19.556Z,57.51
2023-05-12T10:54:47.787Z,57.69
2023-05-12T10:57:18.405Z,57.74
2023-05-12T10:59:54.361Z,58.19
2023-05-12T11:02:27.422Z,59.04
2023-05-12T11:05:13.189Z,58.50
2023-05-12T11:07:42.256Z,56.94
2023-05-12T11:10:14.942Z,57.48
2023-05-12T11:12:43.893Z,57.25
2023-05-12T11:15:17.802Z,57.87
2023-05-12T11:17:49.366Z,57.21
2023-05-12T11:20:23.884Z,55.43
2023-05-12T11:22:50.792Z,56.14
2023-05-12T11:25:17.675Z,56.87
2023-05-12T11:27:56.986Z,57.31
2023-05-12T11:30:24.230Z,57.08
2023-05-12T11:33:04.404Z,55.63
2023-05-12T11:35:36.088Z,54.66
2023-05-12T11:38:20.239Z,54.59
2023-05-12T11:40:52.383Z,53.43
2023-05-12T11:43:22.794Z,54.50
2023-05-12T11:45:49.513Z,55.43
2023-05-12T11:48:18.972Z,54.74
2023-05-12T11:50:49.026Z,55.61
2023-05-12T11:53:23.933Z,54.79
2023-05-12T11:55:53.659Z,55.65
2023-05-12T11:58:23.666Z,56.00
2023-05-12T12:00:55.770Z,56.77
2023-05-12T12:03:22.694Z,57.38
2023-05-12T12:06:11.649Z,52.52
2023-05-12T12:08:40.935Z,53.14
2023-05-12T12:11:08.564Z,54.60
2023-05-12T12:13:35.184Z,55.37
2023-05-12T12:16:04.093Z,56.64
2023-05-12T12:18:31.318Z,59.02
2023-05-12T12:21:00.034Z,65.17
2023-05-12T12:23:26.721Z,66.29
2023-05-12T12:25:53.382Z,70.32
2023-05-12T12:28:21.146Z,74.01
2023-05-12T12:30:48.093Z,77.58
2023-05-12T12:33:14.721Z,79.11
2023-05-12T12:35:50.086Z,80.38
2023-05-12T12:38:16.679Z,82.60
2023-05-12T12:40:43.198Z,83.52
2023-05-12T12:43:12.852Z,85.43
2023-05-12T12:45:39.447Z,90.92
2023-05-12T12:48:09.001Z,94.20
2023-05-12T12:50:38.654Z,94.95
2023-05-12T12:53:05.554Z,94.71
2023-05-12T12:55:32.278Z,95.10
2023-05-12T12:57:58.898Z,97.12
2023-05-12T13:00:29.848Z,97.93
2023-05-12T13:02:59.207Z,95.58
2023-05-12T13:05:25.875Z,98.02
2023-05-12T13:07:52.462Z,96.80
2023-05-12T13:10:19.056Z,97.58
2023-05-12T13:12:45.590Z,99.11
2023-05-12T13:15:12.319Z,96.24
2023-05-12T13:17:39.019Z,93.63
2023-05-12T13:20:09.242Z,91.87
2023-05-12T13:22:42.011Z,94.88
2023-05-12T13:25:08.962Z,94.26
2023-05-12T13:27:39.754Z,93.47
2023-05-12T13:30:07.409Z,95.36
2023-05-12T13:32:34.888Z,95.73
2023-05-12T13:35:02.686Z,94.18
2023-05-12T13:37:29.305Z,94.93
2023-05-12T13:39:58.813Z,97.71
2023-05-12T13:42:25.534Z,98.57
2023-05-12T13:44:52.150Z,97.20
2023-05-12T13:47:19.163Z,96.86
2023-05-12T13:49:45.911Z,97.01
2023-05-12T13:52:12.433Z,97.86
2023-05-12T13:54:40.420Z,98.69
2023-05-12T13:57:07.670Z,95.85
2023-05-12T13:59:34.667Z,97.56
2023-05-12T14:02:02.385Z,98.43
2023-05-12T14:04:33.478Z,96.67
2023-05-12T14:07:00.016Z,97.11
2023-05-12T14:09:30.924Z,96.16
2023-05-12T14:11:58.163Z,95.55
2023-05-12T14:14:24.729Z,95.44
2023-05-12T14:16:51.330Z,96.49
2023-05-12T14:19:18.128Z,92.92
2023-05-12T14:21:47.090Z,95.58
2023-05-12T14:24:15.906Z,95.53
2023-05-12T14:26:44.846Z,94.58
2023-05-12T14:29:11.360Z,93.29
2023-05-12T14:31:37.910Z,95.53
2023-05-12T14:34:09.374Z,95.65
2023-05-12T14:36:35.941Z,95.63
2023-05-12T14:39:02.609Z,94.66
2023-05-12T14:41:29.185Z,93.55
2023-05-12T14:43:55.663Z,95.26
2023-05-12T14:46:22.477Z,94.28
2023-05-12T14:48:49.133Z,93.44
2023-05-12T14:51:15.730Z,92.44
2023-05-12T14:53:42.614Z,90.58
2023-05-12T14:56:09.249Z,90.07
2023-05-12T14:58:35.874Z,90.14
2023-05-12T15:01:02.939Z,89.29
2023-05-12T15:03:30.226Z,90.38
2023-05-12T15:06:06.630Z,90.47
2023-05-12T15:08:34.164Z,88.11
2023-05-12T15:11:00.834Z,87.20
2023-05-12T15:13:27.395Z,85.83
2023-05-12T15:15:58.887Z,83.63
2023-05-12T15:18:25.543Z,85.38
2023-05-12T15:20:52.212Z,85.60
2023-05-12T15:23:18.860Z,86.18
2023-05-12T15:25:45.480Z,87.18
2023-05-12T15:28:15.289Z,83.47
2023-05-12T15:30:41.927Z,84.08
2023-05-12T15:33:08.598Z,84.60
2023-05-12T15:35:38.465Z,83.91
2023-05-12T15:38:06.514Z,84.21
2023-05-12T15:40:35.700Z,80.81
2023-05-12T15:43:06.868Z,82.58
2023-05-12T15:45:37.338Z,80.78
2023-05-12T15:48:06.130Z,81.39
2023-05-12T15:50:33.857Z,80.82
2023-05-12T15:53:00.536Z,79.89
2023-05-12T15:55:27.075Z,78.71
2023-05-12T15:57:55.787Z,77.59
2023-05-12T16:00:25.665Z,77.76
2023-05-12T16:02:52.319Z,76.33
2023-05-12T16:05:19.081Z,77.05
2023-05-12T16:07:48.074Z,77.21
2023-05-12T16:10:14.619Z,72.54
2023-05-12T16:12:41.325Z,71.04
2023-05-12T16:15:08.158Z,71.77
2023-05-12T16:17:34.747Z,69.37
2023-05-12T16:20:02.279Z,70.93
2023-05-12T16:22:31.289Z,71.47
2023-05-12T16:24:59.298Z,72.14
2023-05-12T16:27:25.825Z,71.43
2023-05-12T16:29:53.712Z,70.29
2023-05-12T16:32:20.626Z,69.01
2023-05-12T16:38:15.533Z,72.03
2023-05-12T16:40:42.256Z,71.40
2023-05-12T16:43:08.973Z,71.17
2023-05-12T16:45:38.171Z,71.42
2023-05-12T16:48:05.128Z,73.23
2023-05-12T16:50:35.384Z,73.49
2023-05-12T16:53:02.619Z,73.69
2023-05-12T16:55:29.254Z,74.14
2023-05-12T16:57:55.858Z,74.59
2023-05-12T17:03:09.204Z,76.67
2023-05-12T17:05:37.162Z,76.55
2023-05-12T17:08:04.412Z,77.55
2023-05-12T17:10:31.042Z,78.48
2023-05-12T17:12:58.603Z,79.55
2023-05-12T17:15:25.529Z,78.20
2023-05-12T17:17:52.797Z,78.70
2023-05-12T17:20:19.570Z,78.33
2023-05-12T17:22:50.396Z,79.11
2023-05-12T17:25:21.086Z,78.62
2023-05-12T17:27:48.407Z,78.41
2023-05-12T17:30:15.174Z,77.71
2023-05-12T17:32:41.909Z,77.48
2023-05-12T17:35:09.203Z,78.61
2023-05-12T17:37:36.714Z,79.11
2023-05-12T17:40:05.998Z,78.80
2023-05-12T17:42:32.782Z,79.71
2023-05-12T17:45:09.853Z,79.09
2023-05-12T17:47:38.022Z,77.87
2023-05-12T17:50:06.749Z,78.96
2023-05-12T17:52:41.130Z,79.08
2023-05-12T17:55:08.490Z,79.90
2023-05-12T17:57:35.225Z,80.77
2023-05-12T18:00:10.869Z,80.92
2023-05-12T18:02:45.818Z,80.45
2023-05-12T18:05:12.846Z,80.09
2023-05-12T18:07:39.792Z,79.89
2023-05-12T18:10:07.341Z,79.59
2023-05-12T18:12:34.226Z,80.26
2023-05-12T18:15:06.626Z,80.63
2023-05-12T18:17:33.367Z,80.15
2023-05-12T18:20:00.205Z,79.39
2023-05-12T18:22:26.900Z,79.77
2023-05-12T18:24:53.793Z,80.25
2023-05-12T18:27:29.798Z,80.35
2023-05-12T18:29:57.073Z,80.80
2023-05-12T18:32:25.032Z,81.50
2023-05-12T18:34:53.168Z,81.30
2023-05-12T18:37:23.961Z,80.85
2023-05-12T18:40:01.448Z,82.40
2023-05-12T18:42:31.787Z,81.85
2023-05-12T18:44:58.541Z,81.94
2023-05-12T18:47:25.272Z,81.78
2023-05-12T18:49:54.307Z,83.14
2023-05-12T18:52:21.465Z,83.34
2023-05-12T18:54:53.448Z,83.60
2023-05-12T18:57:20.433Z,83.79
2023-05-12T18:59:47.041Z,82.62
2023-05-12T19:02:17.672Z,82.21
2023-05-12T19:04:47.294Z,83.12
2023-05-12T19:07:15.625Z,81.98
2023-05-12T19:09:45.586Z,82.69
2023-05-12T19:12:12.470Z,81.65
2023-05-12T19:14:43.225Z,81.52
2023-05-12T19:17:10.659Z,82.25
2023-05-12T19:19:38.459Z,82.41
2023-05-12T19:22:06.466Z,83.15
2023-05-12T19:24:34.018Z,83.93
2023-05-12T19:27:10.206Z,83.78
2023-05-12T19:29:44.527Z,83.03
2023-05-12T19:32:12.309Z,83.43
2023-05-12T19:34:42.293Z,83.92
2023-05-12T19:37:09.157Z,84.63
2023-05-12T19:39:35.913Z,84.42
2023-05-12T19:42:11.111Z,84.44
2023-05-12T19:44:40.100Z,85.58
2023-05-12T19:47:09.962Z,85.51
2023-05-12T19:49:39.722Z,85.95
2023-05-12T19:52:06.686Z,86.47
2023-05-12T19:54:33.745Z,85.79
2023-05-12T19:57:02.508Z,86.89
2023-05-12T19:59:29.316Z,87.00
2023-05-12T20:01:56.012Z,86.81
2023-05-12T20:04:23.495Z,86.20
2023-05-12T20:06:52.203Z,85.77
2023-05-12T20:09:21.501Z,86.22
2023-05-12T20:11:51.791Z,86.83
2023-05-12T20:14:18.483Z,86.94
2023-05-12T20:16:45.421Z,86.00
2023-05-12T20:19:14.196Z,87.01
2023-05-12T20:21:41.743Z,86.98
2023-05-12T20:24:08.583Z,84.82
2023-05-12T20:26:39.771Z,84.82
2023-05-12T20:29:09.981Z,84.85
2023-05-12T20:31:36.861Z,85.21
2023-05-12T20:34:03.553Z,86.35
2023-05-12T20:36:30.583Z,87.48
2023-05-12T20:38:58.128Z,86.42
2023-05-12T20:41:24.713Z,86.35
2023-05-12T20:43:51.346Z,87.26
2023-05-12T20:46:18.180Z,86.90
2023-05-12T20:48:46.994Z,86.93
2023-05-12T20:51:13.776Z,87.20
2023-05-12T20:53:42.770Z,87.16
2023-05-12T20:56:10.472Z,87.17
2023-05-12T20:58:37.544Z,87.42
2023-05-12T21:01:06.869Z,87.17
2023-05-12T21:03:43.752Z,87.44
2023-05-12T21:06:14.145Z,87.21
2023-05-12T21:08:40.793Z,86.24
2023-05-12T21:11:17.076Z,86.97
2023-05-12T21:13:44.830Z,87.23
2023-05-12T21:16:11.530Z,87.24
2023-05-12T21:18:44.188Z,87.20
2023-05-12T21:21:11.999Z,87.91
2023-05-12T21:23:38.834Z,88.25
2023-05-12T21:26:06.470Z,88.54
2023-05-12T21:28:33.260Z,86.91
2023-05-12T21:30:59.850Z,87.67
2023-05-12T21:33:26.627Z,88.34
2023-05-12T21:35:53.526Z,88.36
2023-05-12T21:38:29.362Z,87.57
2023-05-12T21:40:56.564Z,86.67
2023-05-12T21:43:23.691Z,85.76
2023-05-12T21:45:50.624Z,85.33
2023-05-12T21:48:20.084Z,86.05
2023-05-12T21:50:56.550Z,87.72
2023-05-12T21:53:23.430Z,87.50
2023-05-12T21:55:50.090Z,87.71
2023-05-12T21:58:24.276Z,87.44
2023-05-12T22:00:51.383Z,87.45
2023-05-12T22:03:20.415Z,86.61
2023-05-12T22:05:50.276Z,87.45
2023-05-12T22:08:17.029Z,88.59
2023-05-12T22:10:47.052Z,88.37
2023-05-12T22:13:14.048Z,87.94
2023-05-12T22:15:41.400Z,87.52
2023-05-12T22:18:08.171Z,87.68
2023-05-12T22:20:39.867Z,88.54
2023-05-12T22:23:06.802Z,87.49
2023-05-12T22:25:33.373Z,87.44
2023-05-12T22:28:07.172Z,87.67
2023-05-12T22:30:34.910Z,88.29
2023-05-12T22:33:03.567Z,89.34
2023-05-12T22:35:30.482Z,89.30
2023-05-12T22:38:00.537Z,89.72
2023-05-12T22:40:28.147Z,88.99
2023-05-12T22:43:02.059Z,88.56
2023-05-12T22:45:37.365Z,88.87
2023-05-12T22:48:08.176Z,88.66
2023-05-12T22:50:34.775Z,87.62
2023-05-12T22:53:02.145Z,87.77
2023-05-12T22:55:33.475Z,88.76
2023-05-12T22:58:00.916Z,89.54
2023-05-12T23:00:35.630Z,89.30
2023-05-12T23:03:05.349Z,88.43
2023-05-12T23:05:32.076Z,88.88
2023-05-12T23:08:08.998Z,88.75
2023-05-12T23:10:44.492Z,89.62
2023-05-12T23:13:20.786Z,89.66
2023-05-12T23:15:52.105Z,89.90
2023-05-12T23:18:24.036Z,89.99
2023-05-12T23:20:51.579Z,89.30
2023-05-12T23:23:22.373Z,89.97
2023-05-12T23:25:57.003Z,89.17
2023-05-12T23:28:28.523Z,88.71
2023-05-12T23:30:55.199Z,89.40
2023-05-12T23:33:27.259Z,88.08
2023-05-12T23:35:54.161Z,86.40
2023-05-12T23:38:29.185Z,86.43
2023-05-12T23:40:56.154Z,85.38
2023-05-12T23:43:24.032Z,85.10
2023-05-12T23:45:53.886Z,84.66
2023-05-12T23:48:20.480Z,84.36
2023-05-12T23:51:01.474Z,84.56
2023-05-12T23:53:35.568Z,84.57
2023-05-12T23:56:10.370Z,84.81
2023-05-12T23:58:45.531Z,85.70
